createdAt,value
2024-01-24T00:02:09.651Z,101108.06
2024-01-24T00:04:37.656Z,101088.41
2024-01-24T00:07:04.634Z,101072.31
2024-01-24T00:09:31.675Z,101056.13
2024-01-24T00:11:59.108Z,101047.22
2024-01-24T00:14:26.451Z,101029.28
2024-01-24T00:16:53.119Z,101026.59
2024-01-24T00:19:19.860Z,101014.09
2024-01-24T00:21:48.090Z,101007.81
2024-01-24T00:24:14.944Z,101002.44
2024-01-24T00:26:41.616Z,101001.44
2024-01-24T00:29:08.354Z,100993.38
2024-01-24T00:31:35.000Z,100991.44
2024-01-24T00:34:02.433Z,100971.69
2024-01-24T00:36:29.204Z,100953.75
2024-01-24T00:38:57.351Z,100944.69
2024-01-24T00:41:23.971Z,100934.81
2024-01-24T00:43:50.581Z,100924.09
2024-01-24T00:46:17.187Z,100920.44
2024-01-24T00:48:43.910Z,100911.25
2024-01-24T00:51:10.614Z,100898.69
2024-01-24T00:53:38.227Z,100887.84
2024-01-24T00:56:06.817Z,100874.31
2024-01-24T00:58:33.444Z,100856.22
2024-01-24T01:01:00.282Z,100828.41
2024-01-24T01:03:27.059Z,100812.03
2024-01-24T01:05:53.778Z,100811.78
2024-01-24T01:08:20.360Z,100820.59
2024-01-24T01:10:47.017Z,100818.63
2024-01-24T01:13:15.087Z,100800.56
2024-01-24T01:15:42.245Z,100802.28
2024-01-24T01:18:09.069Z,100791.25
2024-01-24T01:20:35.665Z,100789.31
2024-01-24T01:23:03.255Z,100788.19
2024-01-24T01:25:29.885Z,100771.00
2024-01-24T01:27:56.567Z,100759.13
2024-01-24T01:30:24.767Z,100752.63
2024-01-24T01:32:51.663Z,100738.22
2024-01-24T01:35:18.332Z,100730.06
2024-01-24T01:37:44.944Z,100717.34
2024-01-24T01:40:12.091Z,100726.13
2024-01-24T01:42:43.450Z,100715.97
2024-01-24T01:45:10.325Z,100705.97
2024-01-24T01:47:39.538Z,100695.06
2024-01-24T01:50:09.451Z,100701.19
2024-01-24T01:52:36.615Z,100706.41
2024-01-24T01:55:04.022Z,100688.44
2024-01-24T01:57:31.046Z,100679.28
2024-01-24T01:59:58.219Z,100668.28
2024-01-24T02:02:24.877Z,100662.78
2024-01-24T02:04:53.310Z,100649.19
2024-01-24T02:07:20.210Z,100632.81
2024-01-24T02:09:47.066Z,100638.03
2024-01-24T02:12:13.672Z,100656.47
2024-01-24T02:14:40.328Z,100659.03
2024-01-24T02:17:07.124Z,100643.59
2024-01-24T02:19:33.950Z,100642.50
2024-01-24T02:22:02.000Z,100632.47
2024-01-24T02:24:30.399Z,100633.06
2024-01-24T02:26:57.018Z,100617.50
2024-01-24T02:29:23.634Z,100618.22
2024-01-24T02:31:50.223Z,100593.78
2024-01-24T02:34:17.025Z,100599.84
2024-01-24T02:36:43.770Z,100591.50
2024-01-24T02:39:10.516Z,100600.28
2024-01-24T02:41:40.207Z,100599.03
2024-01-24T02:44:06.798Z,100586.31
2024-01-24T02:46:33.388Z,100570.88
2024-01-24T02:49:00.174Z,100566.94
2024-01-24T02:51:27.321Z,100562.28
2024-01-24T02:53:54.090Z,100529.72
2024-01-24T02:56:20.893Z,100533.13
2024-01-24T02:58:49.091Z,100531.16
2024-01-24T03:01:15.883Z,100533.53
2024-01-24T03:03:42.961Z,100529.75
2024-01-24T03:06:09.807Z,100540.22
2024-01-24T03:08:51.788Z,100539.81
2024-01-24T03:11:18.940Z,100529.63
2024-01-24T03:13:45.747Z,100522.09
2024-01-24T03:16:13.908Z,100538.97
2024-01-24T03:18:41.070Z,100544.06
2024-01-24T03:21:08.558Z,100535.88
2024-01-24T03:23:35.227Z,100529.34
2024-01-24T03:26:01.820Z,100528.22
2024-01-24T03:28:28.411Z,100515.47
2024-01-24T03:30:55.013Z,100522.25
2024-01-24T03:33:23.170Z,100509.41
2024-01-24T03:35:49.860Z,100517.03
2024-01-24T03:38:16.517Z,100508.69
2024-01-24T03:40:43.114Z,100505.81
2024-01-24T03:43:09.715Z,100500.19
2024-01-24T03:45:37.182Z,100485.44
2024-01-24T03:48:04.390Z,100492.22
2024-01-24T03:50:32.627Z,100500.88
2024-01-24T03:52:59.342Z,100493.22
2024-01-24T03:55:25.964Z,100484.84
2024-01-24T03:57:52.663Z,100481.72
2024-01-24T04:00:19.644Z,100466.09
2024-01-24T04:02:46.266Z,100451.22
2024-01-24T04:05:12.917Z,100454.47
2024-01-24T04:07:41.036Z,100451.50
2024-01-24T04:10:08.902Z,100449.34
2024-01-24T04:12:35.540Z,100441.97
2024-01-24T04:15:02.227Z,100424.50
2024-01-24T04:17:28.879Z,100426.94
2024-01-24T04:19:55.459Z,100421.22
2024-01-24T04:22:22.080Z,100402.06
2024-01-24T04:24:50.221Z,100384.63
2024-01-24T04:27:16.915Z,100390.72
2024-01-24T04:29:43.896Z,100387.91
2024-01-24T04:32:10.630Z,100393.81
2024-01-24T04:34:37.399Z,100401.59
2024-01-24T04:37:04.278Z,100387.81
2024-01-24T04:39:30.918Z,100383.13
2024-01-24T04:42:05.566Z,100380.13
2024-01-24T04:44:38.841Z,100370.06
2024-01-24T04:47:05.835Z,100366.91
2024-01-24T04:49:43.648Z,100375.69
2024-01-24T04:52:12.080Z,100376.22
2024-01-24T04:54:38.813Z,100367.16
2024-01-24T04:57:07.085Z,100354.38
2024-01-24T04:59:42.639Z,100365.84
2024-01-24T05:02:17.207Z,100364.84
2024-01-24T05:04:43.948Z,100359.13
2024-01-24T05:07:10.804Z,100356.31
2024-01-24T05:09:37.573Z,100348.88
2024-01-24T05:12:05.008Z,100359.38
2024-01-24T05:14:34.489Z,100357.38
2024-01-24T05:17:01.150Z,100364.34
2024-01-24T05:19:27.836Z,100364.16
2024-01-24T05:21:54.843Z,100354.06
2024-01-24T05:24:21.504Z,100350.22
2024-01-24T05:26:48.133Z,100322.25
2024-01-24T05:29:15.875Z,100320.25
2024-01-24T05:31:43.868Z,100325.47
2024-01-24T05:34:10.770Z,100322.63
2024-01-24T05:36:37.648Z,100319.63
2024-01-24T05:39:04.457Z,100322.03
2024-01-24T05:41:31.212Z,100320.84
2024-01-24T05:43:57.807Z,100292.69
2024-01-24T05:46:24.413Z,100300.31
2024-01-24T05:48:52.468Z,100299.84
2024-01-24T05:51:19.185Z,100298.72
2024-01-24T05:53:45.773Z,100301.94
2024-01-24T05:56:12.565Z,100291.66
2024-01-24T05:58:39.185Z,100286.97
2024-01-24T06:01:05.991Z,100286.50
2024-01-24T06:03:32.770Z,100288.88
2024-01-24T06:06:01.176Z,100280.44
2024-01-24T06:08:27.950Z,100262.25
2024-01-24T06:10:54.948Z,100266.47
2024-01-24T06:13:21.591Z,100267.19
2024-01-24T06:15:48.209Z,100278.66
2024-01-24T06:18:14.835Z,100281.88
2024-01-24T06:20:41.487Z,100289.81
2024-01-24T06:23:09.487Z,100285.13
2024-01-24T06:25:36.219Z,100289.34
2024-01-24T06:28:02.912Z,100264.06
2024-01-24T06:30:31.128Z,100254.09
2024-01-24T06:32:58.498Z,100239.41
2024-01-24T06:35:25.140Z,100250.91
2024-01-24T06:37:51.940Z,100262.38
2024-01-24T06:40:19.913Z,100253.94
2024-01-24T06:42:46.648Z,100264.47
2024-01-24T06:45:13.428Z,100282.03
2024-01-24T06:47:40.406Z,100341.13
2024-01-24T06:50:07.993Z,100430.97
2024-01-24T06:52:34.981Z,100428.09
2024-01-24T06:55:01.863Z,100407.13
2024-01-24T06:57:29.897Z,100397.81
2024-01-24T06:59:56.916Z,100394.72
2024-01-24T07:02:23.544Z,100385.78
2024-01-24T07:04:50.200Z,100381.94
2024-01-24T07:07:17.007Z,100398.47
2024-01-24T07:09:43.690Z,100390.59
2024-01-24T07:12:12.546Z,100378.31
2024-01-24T07:14:40.674Z,100376.16
2024-01-24T07:17:07.338Z,100383.06
2024-01-24T07:19:34.153Z,100381.06
2024-01-24T07:22:01.893Z,100395.44
2024-01-24T07:24:29.650Z,100395.25
2024-01-24T07:26:56.286Z,100388.19
2024-01-24T07:29:23.188Z,100389.19
2024-01-24T07:31:51.219Z,100405.41
2024-01-24T07:34:17.882Z,100383.06
2024-01-24T07:36:44.585Z,100393.03
2024-01-24T07:39:11.346Z,100394.06
2024-01-24T07:41:37.952Z,100397.75
2024-01-24T07:44:04.785Z,100403.31
2024-01-24T07:46:31.632Z,100402.47
2024-01-24T07:49:00.131Z,100390.00
2024-01-24T07:51:27.044Z,100397.25
2024-01-24T07:53:53.786Z,100392.84
2024-01-24T07:56:25.978Z,100390.81
2024-01-24T07:58:53.954Z,100395.06
2024-01-24T08:01:22.141Z,100395.91
2024-01-24T08:03:50.940Z,100393.88
2024-01-24T08:06:19.664Z,100383.06
2024-01-24T08:08:46.456Z,100384.78
2024-01-24T08:11:13.609Z,100384.78
2024-01-24T08:13:40.334Z,100392.03
2024-01-24T08:16:07.071Z,100395.59
2024-01-24T08:18:34.017Z,100404.41
2024-01-24T08:21:00.821Z,100394.13
2024-01-24T08:23:37.824Z,100381.13
2024-01-24T08:26:10.289Z,100385.53
2024-01-24T08:28:36.969Z,100388.91
2024-01-24T08:31:04.003Z,100380.50
2024-01-24T08:33:30.735Z,100393.53
2024-01-24T08:35:57.384Z,100418.38
2024-01-24T08:38:24.004Z,100461.63
2024-01-24T08:40:52.043Z,100516.53
2024-01-24T08:43:18.711Z,100535.59
2024-01-24T08:45:46.709Z,100523.41
2024-01-24T08:48:14.687Z,100528.13
2024-01-24T08:50:41.380Z,100522.34
2024-01-24T08:53:08.011Z,100538.00
2024-01-24T08:55:34.785Z,100535.25
2024-01-24T08:58:02.958Z,100523.91
2024-01-24T09:00:29.791Z,100524.38
2024-01-24T09:02:56.746Z,100519.75
2024-01-24T09:05:23.682Z,100522.06
2024-01-24T09:07:50.283Z,100524.38
2024-01-24T09:10:17.865Z,100525.38
2024-01-24T09:12:44.641Z,100486.56
2024-01-24T09:15:13.039Z,100495.66
2024-01-24T09:17:39.735Z,100495.50
2024-01-24T09:20:09.012Z,100499.91
2024-01-24T09:22:35.868Z,100495.03
2024-01-24T09:25:06.435Z,100502.81
2024-01-24T09:27:35.270Z,100507.94
2024-01-24T09:30:01.937Z,100505.59
2024-01-24T09:32:30.172Z,100501.56
2024-01-24T09:34:57.059Z,100545.19
2024-01-24T09:37:23.795Z,100514.84
2024-01-24T09:39:51.778Z,100511.53
2024-01-24T09:42:20.974Z,100516.44
2024-01-24T09:44:48.975Z,100515.31
2024-01-24T09:47:16.321Z,100517.69
2024-01-24T09:49:44.938Z,100525.34
2024-01-24T09:52:13.151Z,100533.69
2024-01-24T09:54:41.008Z,100527.34
2024-01-24T09:57:08.007Z,100526.22
2024-01-24T09:59:34.788Z,100527.50
2024-01-24T10:02:01.472Z,100528.06
2024-01-24T10:04:29.267Z,100516.97
2024-01-24T10:06:58.133Z,100520.56
2024-01-24T10:09:24.866Z,100543.72
2024-01-24T10:11:51.746Z,100534.75
2024-01-24T10:14:19.436Z,100522.09
2024-01-24T10:16:46.330Z,100533.09
2024-01-24T10:19:13.238Z,100534.75
2024-01-24T10:21:41.752Z,100540.88
2024-01-24T10:24:09.989Z,100536.13
2024-01-24T10:26:36.651Z,100538.69
2024-01-24T10:29:04.274Z,100521.25
2024-01-24T10:31:31.765Z,100535.50
2024-01-24T10:33:58.492Z,100539.72
2024-01-24T10:36:31.837Z,100519.28
2024-01-24T10:39:02.260Z,100521.50
2024-01-24T10:41:31.593Z,100530.31
2024-01-24T10:44:06.058Z,100541.97
2024-01-24T10:46:33.795Z,100553.50
2024-01-24T10:49:02.549Z,100551.50
2024-01-24T10:51:30.413Z,100564.00
2024-01-24T10:53:58.052Z,100557.56
2024-01-24T10:56:27.589Z,100554.53
2024-01-24T10:58:56.738Z,100571.47
2024-01-24T11:01:24.290Z,100547.78
2024-01-24T11:03:53.691Z,100561.00
2024-01-24T11:06:23.448Z,100565.41
2024-01-24T11:08:58.042Z,100554.41
2024-01-24T11:11:28.412Z,100568.66
2024-01-24T11:13:58.494Z,100563.03
2024-01-24T11:16:32.548Z,100577.28
2024-01-24T11:19:00.400Z,100572.53
2024-01-24T11:21:29.542Z,100588.78
2024-01-24T11:23:56.579Z,100593.19
2024-01-24T11:26:48.159Z,100594.19
2024-01-24T11:29:16.329Z,100601.31
2024-01-24T11:31:44.162Z,100608.44
2024-01-24T11:34:12.241Z,100606.44
2024-01-24T11:36:42.042Z,100589.00
2024-01-24T11:39:33.689Z,100587.81
2024-01-24T11:42:34.596Z,100575.97
2024-01-24T11:45:17.084Z,100585.78
2024-01-24T11:47:44.291Z,100583.09
2024-01-24T11:50:11.168Z,100594.94
2024-01-24T11:52:37.935Z,100592.72
2024-01-24T11:55:05.869Z,100603.41
2024-01-24T11:57:32.612Z,100595.94
2024-01-24T11:59:59.323Z,100604.78
2024-01-24T12:02:27.343Z,100600.72
2024-01-24T12:04:54.281Z,100605.13
2024-01-24T12:07:21.336Z,100604.13
2024-01-24T12:09:48.089Z,100604.28
2024-01-24T12:12:15.235Z,100611.72
2024-01-24T12:14:42.480Z,100602.78
2024-01-24T12:17:09.945Z,100600.22
2024-01-24T12:19:42.562Z,100613.06
2024-01-24T12:22:13.616Z,100617.97
2024-01-24T12:24:41.112Z,100602.72
2024-01-24T12:27:09.230Z,100602.03
2024-01-24T12:29:36.331Z,100616.59
2024-01-24T12:32:03.769Z,100621.16
2024-01-24T12:34:30.607Z,100607.63
2024-01-24T12:36:59.431Z,100628.63
2024-01-24T12:39:26.693Z,100624.72
2024-01-24T12:41:53.586Z,100618.31
2024-01-24T12:44:20.670Z,100628.13
2024-01-24T12:46:55.740Z,100636.09
2024-01-24T12:49:22.671Z,100651.47
2024-01-24T12:51:50.150Z,100652.19
2024-01-24T12:54:18.367Z,100617.97
2024-01-24T12:56:46.589Z,100636.09
2024-01-24T12:59:13.342Z,100640.50
2024-01-24T13:01:41.804Z,100631.34
2024-01-24T13:04:08.806Z,100640.34
2024-01-24T13:06:35.807Z,100652.69
2024-01-24T13:09:03.153Z,100650.00
2024-01-24T13:11:31.255Z,100661.53
2024-01-24T13:13:58.089Z,100655.91
2024-01-24T13:16:24.903Z,100657.78
2024-01-24T13:18:51.621Z,100657.78
2024-01-24T13:21:18.328Z,100656.09
2024-01-24T13:23:44.960Z,100666.25
2024-01-24T13:26:11.657Z,100678.94
2024-01-24T13:28:40.579Z,100668.44
2024-01-24T13:31:07.322Z,100692.13
2024-01-24T13:33:35.197Z,100673.50
2024-01-24T13:36:02.522Z,100689.06
2024-01-24T13:38:29.784Z,100681.09
2024-01-24T13:40:57.073Z,100690.22
2024-01-24T13:43:23.843Z,100685.00
2024-01-24T13:45:51.970Z,100695.66
2024-01-24T13:48:18.711Z,100691.09
2024-01-24T13:50:45.346Z,100707.50
2024-01-24T13:53:12.353Z,100686.66
2024-01-24T13:55:39.595Z,100701.06
2024-01-24T13:58:06.678Z,100699.53
2024-01-24T14:00:33.654Z,100700.56
2024-01-24T14:03:01.875Z,100706.31
2024-01-24T14:05:28.979Z,100699.84
2024-01-24T14:07:55.768Z,100707.16
2024-01-24T14:10:22.792Z,100722.56
2024-01-24T14:12:49.583Z,100713.72
2024-01-24T14:15:24.511Z,100729.44
2024-01-24T14:18:01.198Z,100730.94
2024-01-24T14:20:28.879Z,100732.44
2024-01-24T14:22:55.511Z,100737.63
2024-01-24T14:25:22.211Z,100732.84
2024-01-24T14:27:48.935Z,100743.47
2024-01-24T14:30:16.114Z,100732.09
2024-01-24T14:32:42.847Z,100740.53
2024-01-24T14:35:15.882Z,100739.00
2024-01-24T14:37:42.671Z,100748.28
2024-01-24T14:40:09.881Z,100760.13
2024-01-24T14:42:36.642Z,100763.81
2024-01-24T14:45:03.755Z,100776.34
2024-01-24T14:47:30.482Z,100770.94
2024-01-24T14:49:57.178Z,100800.84
2024-01-24T14:52:25.300Z,100781.22
2024-01-24T14:54:52.088Z,100794.06
2024-01-24T14:57:18.755Z,100805.34
2024-01-24T14:59:45.400Z,100791.59
2024-01-24T15:02:12.050Z,100799.31
2024-01-24T15:04:38.734Z,100795.38
2024-01-24T15:07:05.770Z,100803.63
2024-01-24T15:09:34.978Z,100801.97
2024-01-24T15:12:02.038Z,100796.69
2024-01-24T15:14:28.712Z,100793.97
2024-01-24T15:16:55.737Z,100787.19
2024-01-24T15:19:22.703Z,100805.25
2024-01-24T15:21:49.636Z,100814.38
2024-01-24T15:24:17.560Z,100812.84
2024-01-24T15:26:46.787Z,100809.41
2024-01-24T15:29:13.454Z,100811.44
2024-01-24T15:31:40.133Z,100810.59
2024-01-24T15:34:07.246Z,100832.38
2024-01-24T15:36:34.123Z,100827.28
2024-01-24T15:39:00.818Z,100826.56
2024-01-24T15:41:27.435Z,100848.50
2024-01-24T15:43:55.469Z,100839.72
2024-01-24T15:46:22.719Z,100847.09
2024-01-24T15:48:49.749Z,100842.56
2024-01-24T15:51:18.415Z,100854.38
2024-01-24T15:53:45.067Z,100854.53
2024-01-24T15:56:11.672Z,100879.88
2024-01-24T15:58:39.679Z,100898.78
2024-01-24T16:01:08.344Z,100863.78
2024-01-24T16:03:35.147Z,100886.41
2024-01-24T16:06:02.421Z,100861.38
2024-01-24T16:08:29.275Z,100875.03
2024-01-24T16:10:56.149Z,100897.66
2024-01-24T16:13:23.140Z,100888.88
2024-01-24T16:15:51.501Z,100884.31
2024-01-24T16:18:19.722Z,100896.13
2024-01-24T16:20:46.389Z,100908.09
2024-01-24T16:23:13.058Z,100907.25
2024-01-24T16:25:39.766Z,100900.13
2024-01-24T16:28:06.806Z,100917.44
2024-01-24T16:30:33.620Z,100911.22
2024-01-24T16:33:00.364Z,100894.13
2024-01-24T16:35:28.578Z,100930.28
2024-01-24T16:37:55.547Z,100923.47
2024-01-24T16:40:22.231Z,100927.16
2024-01-24T16:42:49.033Z,100949.94
2024-01-24T16:45:17.599Z,100951.06
2024-01-24T16:47:44.313Z,100936.00
2024-01-24T16:50:11.678Z,100942.53
2024-01-24T16:52:39.707Z,100955.34
2024-01-24T16:55:07.077Z,100969.88
2024-01-24T16:57:34.038Z,100949.41
2024-01-24T17:00:00.892Z,100968.59
2024-01-24T17:02:34.876Z,100965.06
2024-01-24T17:05:09.272Z,100957.38
2024-01-24T17:07:36.005Z,100963.91
2024-01-24T17:10:04.726Z,100966.91
2024-01-24T17:12:31.746Z,100951.13
2024-01-24T17:14:58.476Z,100984.69
2024-01-24T17:17:25.177Z,100990.25
2024-01-24T17:19:51.913Z,100981.28
2024-01-24T17:22:18.618Z,100994.91
2024-01-24T17:24:45.276Z,100988.66
2024-01-24T17:27:13.333Z,100993.25
2024-01-24T17:29:40.244Z,101007.72
2024-01-24T17:32:07.084Z,100994.34
2024-01-24T17:34:33.802Z,100993.50
2024-01-24T17:37:01.069Z,100990.09
2024-01-24T17:39:28.254Z,100989.25
2024-01-24T17:41:55.260Z,101007.44
2024-01-24T17:44:23.582Z,101006.75
2024-01-24T17:46:50.360Z,101015.81
2024-01-24T17:49:17.319Z,101015.09
2024-01-24T17:51:44.155Z,101014.28
2024-01-24T17:54:10.917Z,101004.28
2024-01-24T17:56:37.670Z,101023.19
2024-01-24T17:59:04.356Z,101029.63
2024-01-24T18:01:32.827Z,101022.50
2024-01-24T18:03:59.873Z,101021.78
2024-01-24T18:06:26.979Z,101036.13
2024-01-24T18:08:54.310Z,101025.34
2024-01-24T18:11:21.034Z,101023.50
2024-01-24T18:13:47.887Z,101055.91
2024-01-24T18:16:14.681Z,101036.31
2024-01-24T18:18:42.843Z,101048.94
2024-01-24T18:21:11.218Z,101063.56
2024-01-24T18:23:38.029Z,101050.06
2024-01-24T18:26:04.961Z,101074.53
2024-01-24T18:28:31.660Z,101080.19
2024-01-24T18:30:58.439Z,101058.00
2024-01-24T18:33:25.400Z,101081.63
2024-01-24T18:35:53.436Z,101073.63
2024-01-24T18:38:20.087Z,101053.88
2024-01-24T18:40:46.696Z,101085.59
2024-01-24T18:43:13.581Z,101070.50
2024-01-24T18:45:40.385Z,101089.69
2024-01-24T18:48:07.885Z,101088.94
2024-01-24T18:50:34.948Z,101080.28
2024-01-24T18:53:03.173Z,101084.69
2024-01-24T18:55:29.956Z,101096.47
2024-01-24T18:57:57.030Z,101092.91
2024-01-24T19:00:23.957Z,101101.19
2024-01-24T19:02:51.108Z,101096.75
2024-01-24T19:05:23.802Z,101084.38
2024-01-24T19:07:57.654Z,101082.09
2024-01-24T19:10:27.119Z,101093.91
2024-01-24T19:12:54.040Z,101078.13
2024-01-24T19:15:20.691Z,101077.53
2024-01-24T19:17:49.246Z,101079.78
2024-01-24T19:20:16.965Z,101090.00
2024-01-24T19:22:43.838Z,101100.91
2024-01-24T19:25:10.598Z,101085.72
2024-01-24T19:27:38.674Z,101101.31
2024-01-24T19:30:06.703Z,101102.31
2024-01-24T19:32:33.440Z,101105.28
2024-01-24T19:35:00.199Z,101106.25
2024-01-24T19:37:26.921Z,101116.19
2024-01-24T19:39:53.840Z,101126.00
2024-01-24T19:42:20.664Z,101116.06
2024-01-24T19:44:48.778Z,101114.22
2024-01-24T19:47:15.810Z,101120.31
2024-01-24T19:49:43.419Z,101107.56
2024-01-24T19:52:10.507Z,101118.09
2024-01-24T19:54:37.274Z,101125.91
2024-01-24T19:57:04.515Z,101129.47
2024-01-24T19:59:31.305Z,101120.50
2024-01-24T20:01:59.377Z,101128.59
2024-01-24T20:04:26.134Z,101139.38
2024-01-24T20:06:52.865Z,101129.34
2024-01-24T20:09:19.577Z,101132.72
2024-01-24T20:11:46.325Z,101125.50
2024-01-24T20:14:13.258Z,101133.47
2024-01-24T20:16:40.143Z,101140.59
2024-01-24T20:19:08.177Z,101142.31
2024-01-24T20:21:38.929Z,101145.00
2024-01-24T20:24:06.169Z,101154.06
2024-01-24T20:26:32.816Z,101144.13
2024-01-24T20:28:59.457Z,101165.56
2024-01-24T20:31:26.358Z,101151.09
2024-01-24T20:33:53.140Z,101164.59
2024-01-24T20:36:21.238Z,101181.63
2024-01-24T20:38:47.927Z,101177.09
2024-01-24T20:41:14.582Z,101178.09
2024-01-24T20:43:41.186Z,101173.53
2024-01-24T20:46:08.895Z,101180.50
2024-01-24T20:48:35.914Z,101182.50
2024-01-24T20:51:03.844Z,101186.06
2024-01-24T20:53:31.883Z,101178.09
2024-01-24T20:55:59.067Z,101180.78
2024-01-24T20:58:26.319Z,101178.09
2024-01-24T21:00:53.871Z,101184.34
2024-01-24T21:03:21.202Z,101186.19
2024-01-24T21:05:48.256Z,101199.69
2024-01-24T21:08:15.118Z,101192.56
2024-01-24T21:10:49.080Z,101196.41
2024-01-24T21:13:22.195Z,101188.56
2024-01-24T21:15:48.991Z,101186.84
2024-01-24T21:18:16.496Z,101188.69
2024-01-24T21:20:43.390Z,101195.06
2024-01-24T21:23:10.298Z,101188.13
2024-01-24T21:25:36.991Z,101185.53
2024-01-24T21:28:05.764Z,101192.94
2024-01-24T21:30:32.521Z,101190.22
2024-01-24T21:32:59.317Z,101184.84
2024-01-24T21:35:26.041Z,101200.16
2024-01-24T21:37:52.733Z,101194.88
2024-01-24T21:40:19.436Z,101200.41
2024-01-24T21:42:46.167Z,101198.72
2024-01-24T21:45:14.479Z,101207.63
2024-01-24T21:47:42.367Z,101199.53
2024-01-24T21:50:09.934Z,101218.31
2024-01-24T21:52:36.610Z,101213.66
2024-01-24T21:55:03.351Z,101206.25
2024-01-24T21:57:30.200Z,101202.47
2024-01-24T21:59:57.019Z,101205.88
2024-01-24T22:02:25.106Z,101210.41
2024-01-24T22:04:52.194Z,101222.06
2024-01-24T22:07:19.010Z,101226.59
2024-01-24T22:09:45.805Z,101227.47
2024-01-24T22:12:12.845Z,101243.66
2024-01-24T22:14:39.556Z,101239.09
2024-01-24T22:17:06.230Z,101236.41
2024-01-24T22:19:34.351Z,101219.34
2024-01-24T22:22:01.068Z,101227.47
2024-01-24T22:24:27.723Z,101223.78
2024-01-24T22:26:54.319Z,101233.72
2024-01-24T22:29:20.975Z,101230.16
2024-01-24T22:31:47.599Z,101225.50
2024-01-24T22:34:14.327Z,101221.94
2024-01-24T22:36:42.493Z,101223.78
2024-01-24T22:39:09.106Z,101248.06
2024-01-24T22:41:40.427Z,101226.34
2024-01-24T22:44:07.093Z,101261.56
2024-01-24T22:46:33.805Z,101238.25
2024-01-24T22:49:00.758Z,101238.25
2024-01-24T22:51:27.519Z,101249.91
2024-01-24T22:53:55.863Z,101241.09
2024-01-24T22:56:22.566Z,101257.41
2024-01-24T22:58:49.153Z,101248.56
2024-01-24T23:01:15.949Z,101259.53
2024-01-24T23:03:42.784Z,101237.06
2024-01-24T23:06:09.478Z,101254.50
2024-01-24T23:08:36.139Z,101251.81
2024-01-24T23:11:04.600Z,101250.97
2024-01-24T23:13:31.272Z,101251.22
2024-01-24T23:15:58.465Z,101245.22
2024-01-24T23:18:25.155Z,101265.09
2024-01-24T23:20:51.789Z,101292.19
2024-01-24T23:23:19.143Z,101260.81
2024-01-24T23:25:45.813Z,101269.88
2024-01-24T23:28:13.886Z,101266.19
2024-01-24T23:30:40.698Z,101270.88
2024-01-24T23:33:07.409Z,101253.00
2024-01-24T23:35:34.202Z,101266.34
2024-01-24T23:38:00.956Z,101268.03
2024-01-24T23:40:27.663Z,101276.13
2024-01-24T23:42:54.404Z,101274.44
2024-01-24T23:45:22.554Z,101272.72
2024-01-24T23:47:49.449Z,101271.00
2024-01-24T23:50:16.507Z,101280.22
2024-01-24T23:52:43.349Z,101287.47
2024-01-24T23:55:10.701Z,101291.13
2024-01-24T23:57:37.363Z,101271.66
